sensor_id;sensor_type;location;lat;lon;timestamp;P1;durP1;ratioP1;P2;durP2;ratioP2
7707;SDS011;3896;48.758;8.888;2023-04-24T00:01:16;0.50;;;0.50;;
7707;SDS011;3896;48.758;8.888;2023-04-24T00:03:42;0.87;;;0.80;;
7707;SDS011;3896;48.758;8.888;2023-04-24T00:06:07;0.60;;;0.60;;
7707;SDS011;3896;48.758;8.888;2023-04-24T00:08:34;2.33;;;0.63;;
7707;SDS011;3896;48.758;8.888;2023-04-24T00:11:00;0.80;;;0.80;;
7707;SDS011;3896;48.758;8.888;2023-04-24T00:13:26;0.97;;;0.77;;
7707;SDS011;3896;48.758;8.888;2023-04-24T00:15:53;0.57;;;0.57;;
7707;SDS011;3896;48.758;8.888;2023-04-24T00:18:19;0.70;;;0.53;;
7707;SDS011;3896;48.758;8.888;2023-04-24T00:20:45;1.23;;;0.70;;
7707;SDS011;3896;48.758;8.888;2023-04-24T00:23:11;1.20;;;0.70;;
7707;SDS011;3896;48.758;8.888;2023-04-24T00:25:37;1.07;;;0.50;;
7707;SDS011;3896;48.758;8.888;2023-04-24T00:28:02;0.63;;;0.63;;
7707;SDS011;3896;48.758;8.888;2023-04-24T00:30:28;1.03;;;0.80;;
7707;SDS011;3896;48.758;8.888;2023-04-24T00:32:54;1.07;;;0.80;;
7707;SDS011;3896;48.758;8.888;2023-04-24T00:35:19;0.73;;;0.73;;
7707;SDS011;3896;48.758;8.888;2023-04-24T00:37:45;1.13;;;0.77;;
7707;SDS011;3896;48.758;8.888;2023-04-24T00:40:11;1.73;;;0.80;;
7707;SDS011;3896;48.758;8.888;2023-04-24T00:42:37;2.07;;;1.00;;
7707;SDS011;3896;48.758;8.888;2023-04-24T00:45:03;0.67;;;0.67;;
7707;SDS011;3896;48.758;8.888;2023-04-24T00:47:30;2.03;;;0.70;;
7707;SDS011;3896;48.758;8.888;2023-04-24T00:49:57;1.43;;;0.40;;
7707;SDS011;3896;48.758;8.888;2023-04-24T00:52:23;0.97;;;0.40;;
7707;SDS011;3896;48.758;8.888;2023-04-24T00:54:49;2.53;;;0.70;;
7707;SDS011;3896;48.758;8.888;2023-04-24T00:57:15;1.13;;;0.60;;
7707;SDS011;3896;48.758;8.888;2023-04-24T00:59:41;1.67;;;0.80;;
7707;SDS011;3896;48.758;8.888;2023-04-24T01:02:07;1.10;;;0.60;;
7707;SDS011;3896;48.758;8.888;2023-04-24T01:04:35;0.70;;;0.70;;
7707;SDS011;3896;48.758;8.888;2023-04-24T01:07:01;2.20;;;0.60;;
7707;SDS011;3896;48.758;8.888;2023-04-24T01:09:27;1.07;;;0.60;;
7707;SDS011;3896;48.758;8.888;2023-04-24T01:11:53;0.53;;;0.50;;
7707;SDS011;3896;48.758;8.888;2023-04-24T01:14:19;0.53;;;0.53;;
7707;SDS011;3896;48.758;8.888;2023-04-24T01:16:45;0.87;;;0.70;;
7707;SDS011;3896;48.758;8.888;2023-04-24T01:19:11;0.60;;;0.60;;
7707;SDS011;3896;48.758;8.888;2023-04-24T01:21:37;1.13;;;0.63;;
7707;SDS011;3896;48.758;8.888;2023-04-24T01:24:04;1.50;;;0.67;;
7707;SDS011;3896;48.758;8.888;2023-04-24T01:26:31;1.60;;;0.70;;
7707;SDS011;3896;48.758;8.888;2023-04-24T01:28:57;1.50;;;0.70;;
7707;SDS011;3896;48.758;8.888;2023-04-24T01:31:22;0.47;;;0.47;;
7707;SDS011;3896;48.758;8.888;2023-04-24T01:33:49;2.27;;;0.90;;
7707;SDS011;3896;48.758;8.888;2023-04-24T01:36:15;0.67;;;0.67;;
7707;SDS011;3896;48.758;8.888;2023-04-24T01:38:41;1.47;;;0.60;;
7707;SDS011;3896;48.758;8.888;2023-04-24T01:41:07;2.23;;;1.00;;
7707;SDS011;3896;48.758;8.888;2023-04-24T01:43:32;0.90;;;0.90;;
7707;SDS011;3896;48.758;8.888;2023-04-24T01:45:58;0.57;;;0.50;;
7707;SDS011;3896;48.758;8.888;2023-04-24T01:48:24;0.97;;;0.70;;
7707;SDS011;3896;48.758;8.888;2023-04-24T01:50:50;1.73;;;0.70;;
7707;SDS011;3896;48.758;8.888;2023-04-24T01:53:16;1.27;;;0.60;;
7707;SDS011;3896;48.758;8.888;2023-04-24T01:55:41;1.23;;;0.50;;
7707;SDS011;3896;48.758;8.888;2023-04-24T01:58:07;0.93;;;0.63;;
7707;SDS011;3896;48.758;8.888;2023-04-24T02:00:33;0.63;;;0.63;;
7707;SDS011;3896;48.758;8.888;2023-04-24T02:02:58;2.20;;;0.70;;
7707;SDS011;3896;48.758;8.888;2023-04-24T02:05:24;0.70;;;0.70;;
7707;SDS011;3896;48.758;8.888;2023-04-24T02:07:49;2.50;;;0.60;;
7707;SDS011;3896;48.758;8.888;2023-04-24T02:10:15;1.27;;;0.60;;
7707;SDS011;3896;48.758;8.888;2023-04-24T02:12:40;0.90;;;0.90;;
7707;SDS011;3896;48.758;8.888;2023-04-24T02:15:06;2.13;;;0.70;;
7707;SDS011;3896;48.758;8.888;2023-04-24T02:17:32;1.93;;;0.70;;
7707;SDS011;3896;48.758;8.888;2023-04-24T02:19:57;0.60;;;0.60;;
7707;SDS011;3896;48.758;8.888;2023-04-24T02:22:23;0.80;;;0.77;;
7707;SDS011;3896;48.758;8.888;2023-04-24T02:24:48;0.73;;;0.73;;
7707;SDS011;3896;48.758;8.888;2023-04-24T02:27:14;0.80;;;0.70;;
7707;SDS011;3896;48.758;8.888;2023-04-24T02:29:40;0.80;;;0.77;;
7707;SDS011;3896;48.758;8.888;2023-04-24T02:32:05;0.60;;;0.60;;
7707;SDS011;3896;48.758;8.888;2023-04-24T02:34:31;0.87;;;0.70;;
7707;SDS011;3896;48.758;8.888;2023-04-24T02:36:57;0.73;;;0.73;;
7707;SDS011;3896;48.758;8.888;2023-04-24T02:39:22;1.13;;;0.70;;
7707;SDS011;3896;48.758;8.888;2023-04-24T02:41:48;0.80;;;0.80;;
7707;SDS011;3896;48.758;8.888;2023-04-24T02:44:13;1.73;;;0.73;;
7707;SDS011;3896;48.758;8.888;2023-04-24T02:46:39;0.90;;;0.60;;
7707;SDS011;3896;48.758;8.888;2023-04-24T02:49:06;3.07;;;0.70;;
7707;SDS011;3896;48.758;8.888;2023-04-24T02:51:32;2.37;;;0.73;;
7707;SDS011;3896;48.758;8.888;2023-04-24T02:53:57;0.77;;;0.77;;
7707;SDS011;3896;48.758;8.888;2023-04-24T02:56:23;0.87;;;0.67;;
7707;SDS011;3896;48.758;8.888;2023-04-24T02:58:48;1.60;;;0.80;;
7707;SDS011;3896;48.758;8.888;2023-04-24T03:01:14;1.70;;;0.80;;
7707;SDS011;3896;48.758;8.888;2023-04-24T03:03:39;1.03;;;0.70;;
7707;SDS011;3896;48.758;8.888;2023-04-24T03:06:05;1.23;;;0.80;;
7707;SDS011;3896;48.758;8.888;2023-04-24T03:08:31;0.53;;;0.53;;
7707;SDS011;3896;48.758;8.888;2023-04-24T03:10:57;0.60;;;0.60;;
7707;SDS011;3896;48.758;8.888;2023-04-24T03:13:23;0.97;;;0.70;;
7707;SDS011;3896;48.758;8.888;2023-04-24T03:15:48;1.37;;;0.90;;
7707;SDS011;3896;48.758;8.888;2023-04-24T03:18:15;0.87;;;0.87;;
7707;SDS011;3896;48.758;8.888;2023-04-24T03:20:40;0.70;;;0.67;;
7707;SDS011;3896;48.758;8.888;2023-04-24T03:23:06;0.60;;;0.60;;
7707;SDS011;3896;48.758;8.888;2023-04-24T03:25:31;1.80;;;0.90;;
7707;SDS011;3896;48.758;8.888;2023-04-24T03:27:57;3.90;;;1.20;;
7707;SDS011;3896;48.758;8.888;2023-04-24T03:30:22;6.00;;;0.87;;
7707;SDS011;3896;48.758;8.888;2023-04-24T03:32:48;0.73;;;0.73;;
7707;SDS011;3896;48.758;8.888;2023-04-24T03:35:14;1.20;;;0.83;;
7707;SDS011;3896;48.758;8.888;2023-04-24T03:37:39;0.50;;;0.50;;
7707;SDS011;3896;48.758;8.888;2023-04-24T03:40:05;2.00;;;0.90;;
7707;SDS011;3896;48.758;8.888;2023-04-24T03:42:32;1.60;;;0.73;;
7707;SDS011;3896;48.758;8.888;2023-04-24T03:44:57;2.00;;;0.97;;
7707;SDS011;3896;48.758;8.888;2023-04-24T03:47:23;1.10;;;0.70;;
7707;SDS011;3896;48.758;8.888;2023-04-24T03:49:48;0.90;;;0.60;;
7707;SDS011;3896;48.758;8.888;2023-04-24T03:52:14;1.57;;;0.73;;
7707;SDS011;3896;48.758;8.888;2023-04-24T03:54:39;3.30;;;1.07;;
7707;SDS011;3896;48.758;8.888;2023-04-24T03:57:05;1.53;;;0.63;;
7707;SDS011;3896;48.758;8.888;2023-04-24T03:59:30;0.50;;;0.50;;
7707;SDS011;3896;48.758;8.888;2023-04-24T04:01:56;0.60;;;0.60;;
7707;SDS011;3896;48.758;8.888;2023-04-24T04:04:23;2.43;;;1.03;;
7707;SDS011;3896;48.758;8.888;2023-04-24T04:06:48;0.80;;;0.80;;
7707;SDS011;3896;48.758;8.888;2023-04-24T04:09:16;1.33;;;1.00;;
7707;SDS011;3896;48.758;8.888;2023-04-24T04:11:41;1.00;;;0.80;;
7707;SDS011;3896;48.758;8.888;2023-04-24T04:14:07;1.00;;;0.90;;
7707;SDS011;3896;48.758;8.888;2023-04-24T04:16:32;1.27;;;1.00;;
7707;SDS011;3896;48.758;8.888;2023-04-24T04:18:58;1.80;;;0.90;;
7707;SDS011;3896;48.758;8.888;2023-04-24T04:21:24;1.40;;;0.90;;
7707;SDS011;3896;48.758;8.888;2023-04-24T04:23:49;1.43;;;1.00;;
7707;SDS011;3896;48.758;8.888;2023-04-24T04:26:15;1.07;;;1.00;;
7707;SDS011;3896;48.758;8.888;2023-04-24T04:28:41;1.30;;;1.10;;
7707;SDS011;3896;48.758;8.888;2023-04-24T04:31:06;1.10;;;1.00;;
7707;SDS011;3896;48.758;8.888;2023-04-24T04:33:32;0.97;;;0.97;;
7707;SDS011;3896;48.758;8.888;2023-04-24T04:35:58;1.87;;;1.10;;
7707;SDS011;3896;48.758;8.888;2023-04-24T04:38:25;0.73;;;0.73;;
7707;SDS011;3896;48.758;8.888;2023-04-24T04:40:54;1.10;;;1.10;;
7707;SDS011;3896;48.758;8.888;2023-04-24T04:43:21;0.80;;;0.80;;
7707;SDS011;3896;48.758;8.888;2023-04-24T04:45:49;0.80;;;0.80;;
7707;SDS011;3896;48.758;8.888;2023-04-24T04:48:16;0.90;;;0.90;;
7707;SDS011;3896;48.758;8.888;2023-04-24T04:50:43;0.90;;;0.90;;
7707;SDS011;3896;48.758;8.888;2023-04-24T04:53:09;2.13;;;1.17;;
7707;SDS011;3896;48.758;8.888;2023-04-24T04:55:35;1.10;;;1.00;;
7707;SDS011;3896;48.758;8.888;2023-04-24T04:58:01;3.90;;;0.87;;
7707;SDS011;3896;48.758;8.888;2023-04-24T05:00:26;2.10;;;1.43;;
7707;SDS011;3896;48.758;8.888;2023-04-24T05:02:53;1.20;;;1.20;;
7707;SDS011;3896;48.758;8.888;2023-04-24T05:05:19;2.13;;;1.03;;
7707;SDS011;3896;48.758;8.888;2023-04-24T05:07:45;1.13;;;1.13;;
7707;SDS011;3896;48.758;8.888;2023-04-24T05:10:10;1.00;;;0.90;;
7707;SDS011;3896;48.758;8.888;2023-04-24T05:12:36;2.40;;;1.33;;
7707;SDS011;3896;48.758;8.888;2023-04-24T05:15:02;1.17;;;1.17;;
7707;SDS011;3896;48.758;8.888;2023-04-24T05:17:28;0.90;;;0.90;;
7707;SDS011;3896;48.758;8.888;2023-04-24T05:19:54;2.73;;;1.93;;
7707;SDS011;3896;48.758;8.888;2023-04-24T05:22:20;4.23;;;3.83;;
7707;SDS011;3896;48.758;8.888;2023-04-24T05:24:46;4.57;;;4.17;;
7707;SDS011;3896;48.758;8.888;2023-04-24T05:27:12;3.23;;;2.93;;
7707;SDS011;3896;48.758;8.888;2023-04-24T05:29:38;2.97;;;2.77;;
7707;SDS011;3896;48.758;8.888;2023-04-24T05:32:03;1.60;;;1.50;;
7707;SDS011;3896;48.758;8.888;2023-04-24T05:34:29;1.77;;;1.33;;
7707;SDS011;3896;48.758;8.888;2023-04-24T05:36:55;2.73;;;2.00;;
7707;SDS011;3896;48.758;8.888;2023-04-24T05:39:20;2.63;;;2.33;;
7707;SDS011;3896;48.758;8.888;2023-04-24T05:41:46;3.20;;;3.00;;
7707;SDS011;3896;48.758;8.888;2023-04-24T05:44:11;2.33;;;1.90;;
7707;SDS011;3896;48.758;8.888;2023-04-24T05:46:37;1.60;;;1.50;;
7707;SDS011;3896;48.758;8.888;2023-04-24T05:49:02;1.97;;;1.40;;
7707;SDS011;3896;48.758;8.888;2023-04-24T05:51:28;5.37;;;2.40;;
7707;SDS011;3896;48.758;8.888;2023-04-24T05:53:54;1.60;;;1.50;;
7707;SDS011;3896;48.758;8.888;2023-04-24T05:56:20;1.97;;;1.87;;
7707;SDS011;3896;48.758;8.888;2023-04-24T05:58:45;1.87;;;1.67;;
7707;SDS011;3896;48.758;8.888;2023-04-24T06:01:11;1.83;;;1.73;;
7707;SDS011;3896;48.758;8.888;2023-04-24T06:03:40;2.90;;;2.60;;
7707;SDS011;3896;48.758;8.888;2023-04-24T06:06:06;3.90;;;1.90;;
7707;SDS011;3896;48.758;8.888;2023-04-24T06:08:32;1.70;;;1.60;;
7707;SDS011;3896;48.758;8.888;2023-04-24T06:10:58;2.30;;;2.10;;
7707;SDS011;3896;48.758;8.888;2023-04-24T06:13:24;2.03;;;1.83;;
7707;SDS011;3896;48.758;8.888;2023-04-24T06:15:50;1.73;;;1.63;;
7707;SDS011;3896;48.758;8.888;2023-04-24T06:18:17;1.80;;;1.70;;
7707;SDS011;3896;48.758;8.888;2023-04-24T06:20:42;1.30;;;1.20;;
7707;SDS011;3896;48.758;8.888;2023-04-24T06:23:08;1.80;;;1.70;;
7707;SDS011;3896;48.758;8.888;2023-04-24T06:25:34;1.57;;;1.40;;
7707;SDS011;3896;48.758;8.888;2023-04-24T06:28:00;1.93;;;1.83;;
7707;SDS011;3896;48.758;8.888;2023-04-24T06:30:26;2.83;;;2.53;;
7707;SDS011;3896;48.758;8.888;2023-04-24T06:32:53;1.70;;;1.60;;
7707;SDS011;3896;48.758;8.888;2023-04-24T06:35:18;1.80;;;1.70;;
7707;SDS011;3896;48.758;8.888;2023-04-24T06:37:44;1.80;;;1.70;;
7707;SDS011;3896;48.758;8.888;2023-04-24T06:40:10;2.77;;;1.70;;
7707;SDS011;3896;48.758;8.888;2023-04-24T06:42:36;1.60;;;1.50;;
7707;SDS011;3896;48.758;8.888;2023-04-24T06:45:02;3.27;;;1.50;;
7707;SDS011;3896;48.758;8.888;2023-04-24T06:47:28;2.10;;;1.90;;
7707;SDS011;3896;48.758;8.888;2023-04-24T06:49:54;1.50;;;1.40;;
7707;SDS011;3896;48.758;8.888;2023-04-24T06:52:20;2.50;;;1.40;;
7707;SDS011;3896;48.758;8.888;2023-04-24T06:54:45;2.40;;;1.43;;
7707;SDS011;3896;48.758;8.888;2023-04-24T06:57:11;1.43;;;1.33;;
7707;SDS011;3896;48.758;8.888;2023-04-24T06:59:37;2.23;;;1.40;;
7707;SDS011;3896;48.758;8.888;2023-04-24T07:02:02;1.57;;;1.30;;
7707;SDS011;3896;48.758;8.888;2023-04-24T07:04:28;1.70;;;1.50;;
7707;SDS011;3896;48.758;8.888;2023-04-24T07:06:55;1.30;;;1.20;;
7707;SDS011;3896;48.758;8.888;2023-04-24T07:09:22;3.03;;;1.43;;
7707;SDS011;3896;48.758;8.888;2023-04-24T07:11:50;1.40;;;1.37;;
7707;SDS011;3896;48.758;8.888;2023-04-24T07:14:16;1.47;;;1.37;;
7707;SDS011;3896;48.758;8.888;2023-04-24T07:16:42;2.37;;;1.40;;
7707;SDS011;3896;48.758;8.888;2023-04-24T07:19:08;2.57;;;1.20;;
7707;SDS011;3896;48.758;8.888;2023-04-24T07:21:34;1.40;;;1.30;;
7707;SDS011;3896;48.758;8.888;2023-04-24T07:24:00;1.53;;;1.30;;
7707;SDS011;3896;48.758;8.888;2023-04-24T07:26:26;3.90;;;1.73;;
7707;SDS011;3896;48.758;8.888;2023-04-24T07:28:53;1.10;;;1.10;;
7707;SDS011;3896;48.758;8.888;2023-04-24T07:31:19;3.00;;;1.17;;
7707;SDS011;3896;48.758;8.888;2023-04-24T07:33:45;1.20;;;1.17;;
7707;SDS011;3896;48.758;8.888;2023-04-24T07:36:11;2.73;;;1.37;;
7707;SDS011;3896;48.758;8.888;2023-04-24T07:38:41;2.17;;;1.40;;
7707;SDS011;3896;48.758;8.888;2023-04-24T07:41:07;3.17;;;1.20;;
7707;SDS011;3896;48.758;8.888;2023-04-24T07:43:32;2.10;;;1.07;;
7707;SDS011;3896;48.758;8.888;2023-04-24T07:45:58;1.17;;;1.10;;
7707;SDS011;3896;48.758;8.888;2023-04-24T07:48:24;2.17;;;1.50;;
7707;SDS011;3896;48.758;8.888;2023-04-24T07:50:51;2.27;;;1.20;;
7707;SDS011;3896;48.758;8.888;2023-04-24T07:53:17;2.77;;;1.50;;
7707;SDS011;3896;48.758;8.888;2023-04-24T07:55:42;1.33;;;1.23;;
7707;SDS011;3896;48.758;8.888;2023-04-24T07:58:08;1.40;;;1.30;;
7707;SDS011;3896;48.758;8.888;2023-04-24T08:00:34;1.40;;;1.30;;
7707;SDS011;3896;48.758;8.888;2023-04-24T08:02:59;2.60;;;1.40;;
7707;SDS011;3896;48.758;8.888;2023-04-24T08:05:25;2.20;;;1.17;;
7707;SDS011;3896;48.758;8.888;2023-04-24T08:07:52;1.33;;;1.20;;
7707;SDS011;3896;48.758;8.888;2023-04-24T08:10:18;2.50;;;1.17;;
7707;SDS011;3896;48.758;8.888;2023-04-24T08:12:43;3.30;;;1.27;;
7707;SDS011;3896;48.758;8.888;2023-04-24T08:15:09;2.17;;;1.20;;
7707;SDS011;3896;48.758;8.888;2023-04-24T08:17:35;1.50;;;1.40;;
7707;SDS011;3896;48.758;8.888;2023-04-24T08:20:01;1.77;;;1.33;;
7707;SDS011;3896;48.758;8.888;2023-04-24T08:22:30;1.40;;;1.30;;
7707;SDS011;3896;48.758;8.888;2023-04-24T08:24:55;1.27;;;1.17;;
7707;SDS011;3896;48.758;8.888;2023-04-24T08:27:22;1.23;;;1.00;;
7707;SDS011;3896;48.758;8.888;2023-04-24T08:29:49;1.40;;;1.30;;
7707;SDS011;3896;48.758;8.888;2023-04-24T08:32:15;2.13;;;1.93;;
7707;SDS011;3896;48.758;8.888;2023-04-24T08:34:40;5.60;;;1.57;;
7707;SDS011;3896;48.758;8.888;2023-04-24T08:37:06;1.30;;;1.20;;
7707;SDS011;3896;48.758;8.888;2023-04-24T08:39:31;1.83;;;1.60;;
7707;SDS011;3896;48.758;8.888;2023-04-24T08:41:57;1.53;;;1.20;;
7707;SDS011;3896;48.758;8.888;2023-04-24T08:44:30;1.47;;;1.20;;
7707;SDS011;3896;48.758;8.888;2023-04-24T08:46:57;1.83;;;1.20;;
7707;SDS011;3896;48.758;8.888;2023-04-24T08:49:23;1.73;;;1.50;;
7707;SDS011;3896;48.758;8.888;2023-04-24T08:51:50;1.67;;;1.57;;
7707;SDS011;3896;48.758;8.888;2023-04-24T08:54:17;3.47;;;1.20;;
7707;SDS011;3896;48.758;8.888;2023-04-24T08:56:44;1.40;;;1.27;;
7707;SDS011;3896;48.758;8.888;2023-04-24T08:59:09;1.87;;;1.77;;
7707;SDS011;3896;48.758;8.888;2023-04-24T09:01:36;1.70;;;1.50;;
7707;SDS011;3896;48.758;8.888;2023-04-24T09:04:03;2.17;;;1.67;;
7707;SDS011;3896;48.758;8.888;2023-04-24T09:06:29;2.10;;;1.60;;
7707;SDS011;3896;48.758;8.888;2023-04-24T09:08:57;1.27;;;0.90;;
7707;SDS011;3896;48.758;8.888;2023-04-24T09:11:25;1.50;;;1.10;;
7707;SDS011;3896;48.758;8.888;2023-04-24T09:13:53;1.30;;;1.20;;
7707;SDS011;3896;48.758;8.888;2023-04-24T09:16:20;1.50;;;1.43;;
7707;SDS011;3896;48.758;8.888;2023-04-24T09:18:48;1.30;;;1.30;;
7707;SDS011;3896;48.758;8.888;2023-04-24T09:21:13;1.27;;;1.17;;
7707;SDS011;3896;48.758;8.888;2023-04-24T09:23:39;2.33;;;1.60;;
7707;SDS011;3896;48.758;8.888;2023-04-24T09:26:05;3.03;;;1.00;;
7707;SDS011;3896;48.758;8.888;2023-04-24T09:28:37;1.93;;;1.60;;
7707;SDS011;3896;48.758;8.888;2023-04-24T09:31:05;1.40;;;1.17;;
7707;SDS011;3896;48.758;8.888;2023-04-24T09:33:39;3.13;;;1.30;;
7707;SDS011;3896;48.758;8.888;2023-04-24T09:36:05;2.20;;;1.30;;
7707;SDS011;3896;48.758;8.888;2023-04-24T09:38:35;2.20;;;1.07;;
7707;SDS011;3896;48.758;8.888;2023-04-24T09:41:03;1.30;;;1.20;;
7707;SDS011;3896;48.758;8.888;2023-04-24T09:43:31;3.33;;;1.30;;
7707;SDS011;3896;48.758;8.888;2023-04-24T09:45:57;1.17;;;1.00;;
7707;SDS011;3896;48.758;8.888;2023-04-24T09:48:31;1.00;;;1.00;;
7707;SDS011;3896;48.758;8.888;2023-04-24T09:50:57;1.17;;;1.10;;
7707;SDS011;3896;48.758;8.888;2023-04-24T09:53:23;3.57;;;1.10;;
7707;SDS011;3896;48.758;8.888;2023-04-24T09:55:49;1.70;;;1.03;;
7707;SDS011;3896;48.758;8.888;2023-04-24T09:58:15;3.03;;;1.00;;
7707;SDS011;3896;48.758;8.888;2023-04-24T10:00:41;1.30;;;1.20;;
7707;SDS011;3896;48.758;8.888;2023-04-24T10:03:06;1.87;;;0.90;;
7707;SDS011;3896;48.758;8.888;2023-04-24T10:05:33;0.87;;;0.87;;
7707;SDS011;3896;48.758;8.888;2023-04-24T10:08:01;1.07;;;0.97;;
7707;SDS011;3896;48.758;8.888;2023-04-24T10:10:29;1.10;;;1.03;;
7707;SDS011;3896;48.758;8.888;2023-04-24T10:12:56;1.70;;;1.53;;
7707;SDS011;3896;48.758;8.888;2023-04-24T10:15:22;2.10;;;1.27;;
7707;SDS011;3896;48.758;8.888;2023-04-24T10:17:49;1.87;;;1.10;;
7707;SDS011;3896;48.758;8.888;2023-04-24T10:20:21;2.20;;;0.87;;
7707;SDS011;3896;48.758;8.888;2023-04-24T10:22:50;1.30;;;1.20;;
7707;SDS011;3896;48.758;8.888;2023-04-24T10:25:18;1.67;;;1.10;;
7707;SDS011;3896;48.758;8.888;2023-04-24T10:28:04;0.93;;;0.93;;
7707;SDS011;3896;48.758;8.888;2023-04-24T10:30:35;0.97;;;0.90;;
7707;SDS011;3896;48.758;8.888;2023-04-24T10:33:01;1.00;;;1.00;;
7707;SDS011;3896;48.758;8.888;2023-04-24T10:35:31;0.80;;;0.80;;
7707;SDS011;3896;48.758;8.888;2023-04-24T10:38:08;0.90;;;0.90;;
7707;SDS011;3896;48.758;8.888;2023-04-24T10:40:37;2.73;;;1.23;;
7707;SDS011;3896;48.758;8.888;2023-04-24T10:43:05;0.93;;;0.80;;
7707;SDS011;3896;48.758;8.888;2023-04-24T10:45:36;1.40;;;1.10;;
7707;SDS011;3896;48.758;8.888;2023-04-24T10:48:03;3.20;;;1.67;;
7707;SDS011;3896;48.758;8.888;2023-04-24T10:53:17;0.60;;;0.60;;
7707;SDS011;3896;48.758;8.888;2023-04-24T10:55:50;1.30;;;1.00;;
7707;SDS011;3896;48.758;8.888;2023-04-24T10:58:23;1.73;;;1.10;;
7707;SDS011;3896;48.758;8.888;2023-04-24T11:00:57;1.80;;;1.20;;
7707;SDS011;3896;48.758;8.888;2023-04-24T11:03:29;0.87;;;0.87;;
7707;SDS011;3896;48.758;8.888;2023-04-24T11:06:04;1.60;;;1.50;;
7707;SDS011;3896;48.758;8.888;2023-04-24T11:11:10;1.83;;;0.90;;
7707;SDS011;3896;48.758;8.888;2023-04-24T11:19:26;0.83;;;0.83;;
7707;SDS011;3896;48.758;8.888;2023-04-24T11:22:03;0.73;;;0.73;;
7707;SDS011;3896;48.758;8.888;2023-04-24T11:32:19;1.80;;;1.00;;
7707;SDS011;3896;48.758;8.888;2023-04-24T11:34:56;1.30;;;1.20;;
7707;SDS011;3896;48.758;8.888;2023-04-24T11:37:24;1.17;;;1.10;;
7707;SDS011;3896;48.758;8.888;2023-04-24T11:39:52;1.30;;;1.20;;
7707;SDS011;3896;48.758;8.888;2023-04-24T11:42:19;1.50;;;1.40;;
7707;SDS011;3896;48.758;8.888;2023-04-24T11:44:46;1.30;;;1.20;;
7707;SDS011;3896;48.758;8.888;2023-04-24T11:47:15;1.10;;;1.10;;
7707;SDS011;3896;48.758;8.888;2023-04-24T11:49:41;2.93;;;1.13;;
7707;SDS011;3896;48.758;8.888;2023-04-24T11:52:06;1.20;;;1.20;;
7707;SDS011;3896;48.758;8.888;2023-04-24T11:54:32;3.50;;;1.27;;
7707;SDS011;3896;48.758;8.888;2023-04-24T11:56:58;2.00;;;1.37;;
7707;SDS011;3896;48.758;8.888;2023-04-24T11:59:23;1.97;;;1.30;;
7707;SDS011;3896;48.758;8.888;2023-04-24T12:01:49;1.30;;;1.20;;
7707;SDS011;3896;48.758;8.888;2023-04-24T12:04:16;1.90;;;1.20;;
7707;SDS011;3896;48.758;8.888;2023-04-24T12:09:42;1.50;;;1.40;;
7707;SDS011;3896;48.758;8.888;2023-04-24T12:12:13;1.67;;;1.57;;
7707;SDS011;3896;48.758;8.888;2023-04-24T12:14:47;4.00;;;1.47;;
7707;SDS011;3896;48.758;8.888;2023-04-24T12:17:15;1.03;;;1.03;;
7707;SDS011;3896;48.758;8.888;2023-04-24T12:19:48;1.33;;;0.87;;
7707;SDS011;3896;48.758;8.888;2023-04-24T12:22:15;1.70;;;1.27;;
7707;SDS011;3896;48.758;8.888;2023-04-24T12:24:57;1.90;;;1.20;;
7707;SDS011;3896;48.758;8.888;2023-04-24T12:27:30;2.10;;;1.37;;
7707;SDS011;3896;48.758;8.888;2023-04-24T12:29:57;2.77;;;1.60;;
7707;SDS011;3896;48.758;8.888;2023-04-24T12:32:24;1.30;;;1.20;;
7707;SDS011;3896;48.758;8.888;2023-04-24T12:34:50;1.63;;;1.10;;
7707;SDS011;3896;48.758;8.888;2023-04-24T12:37:17;2.00;;;1.30;;
7707;SDS011;3896;48.758;8.888;2023-04-24T12:40:02;0.93;;;0.93;;
7707;SDS011;3896;48.758;8.888;2023-04-24T12:42:33;1.10;;;1.10;;
7707;SDS011;3896;48.758;8.888;2023-04-24T12:45:04;1.33;;;1.00;;
7707;SDS011;3896;48.758;8.888;2023-04-24T12:47:31;1.00;;;1.00;;
7707;SDS011;3896;48.758;8.888;2023-04-24T12:49:57;1.23;;;1.20;;
7707;SDS011;3896;48.758;8.888;2023-04-24T12:52:23;1.23;;;1.20;;
7707;SDS011;3896;48.758;8.888;2023-04-24T12:54:52;1.33;;;1.20;;
7707;SDS011;3896;48.758;8.888;2023-04-24T12:57:18;1.37;;;1.27;;
7707;SDS011;3896;48.758;8.888;2023-04-24T12:59:44;1.40;;;1.23;;
7707;SDS011;3896;48.758;8.888;2023-04-24T13:02:10;1.70;;;1.60;;
7707;SDS011;3896;48.758;8.888;2023-04-24T13:04:36;1.53;;;1.40;;
7707;SDS011;3896;48.758;8.888;2023-04-24T13:07:01;1.20;;;1.20;;
7707;SDS011;3896;48.758;8.888;2023-04-24T13:09:27;3.47;;;1.57;;
7707;SDS011;3896;48.758;8.888;2023-04-24T13:11:53;1.17;;;1.10;;
7707;SDS011;3896;48.758;8.888;2023-04-24T13:14:20;2.07;;;1.30;;
7707;SDS011;3896;48.758;8.888;2023-04-24T13:16:45;1.60;;;1.50;;
7707;SDS011;3896;48.758;8.888;2023-04-24T13:19:11;1.20;;;1.20;;
7707;SDS011;3896;48.758;8.888;2023-04-24T13:21:36;1.10;;;1.10;;
7707;SDS011;3896;48.758;8.888;2023-04-24T13:24:02;0.90;;;0.90;;
7707;SDS011;3896;48.758;8.888;2023-04-24T13:26:29;1.60;;;0.83;;
7707;SDS011;3896;48.758;8.888;2023-04-24T13:28:55;1.23;;;1.10;;
7707;SDS011;3896;48.758;8.888;2023-04-24T13:31:21;1.00;;;1.00;;
7707;SDS011;3896;48.758;8.888;2023-04-24T13:33:46;1.07;;;1.03;;
7707;SDS011;3896;48.758;8.888;2023-04-24T13:36:15;1.47;;;0.93;;
7707;SDS011;3896;48.758;8.888;2023-04-24T13:38:42;1.07;;;1.07;;
7707;SDS011;3896;48.758;8.888;2023-04-24T13:41:09;1.20;;;1.20;;
7707;SDS011;3896;48.758;8.888;2023-04-24T13:43:35;1.63;;;1.20;;
7707;SDS011;3896;48.758;8.888;2023-04-24T13:46:00;2.23;;;1.00;;
7707;SDS011;3896;48.758;8.888;2023-04-24T13:48:28;1.40;;;1.30;;
7707;SDS011;3896;48.758;8.888;2023-04-24T13:50:54;1.37;;;1.27;;
7707;SDS011;3896;48.758;8.888;2023-04-24T13:53:19;3.03;;;1.23;;
7707;SDS011;3896;48.758;8.888;2023-04-24T13:55:45;1.30;;;1.20;;
7707;SDS011;3896;48.758;8.888;2023-04-24T13:58:10;1.33;;;1.23;;
7707;SDS011;3896;48.758;8.888;2023-04-24T14:00:36;1.90;;;1.20;;
7707;SDS011;3896;48.758;8.888;2023-04-24T14:03:02;2.23;;;1.10;;
7707;SDS011;3896;48.758;8.888;2023-04-24T14:05:27;1.50;;;1.23;;
7707;SDS011;3896;48.758;8.888;2023-04-24T14:07:53;1.40;;;1.10;;
7707;SDS011;3896;48.758;8.888;2023-04-24T14:10:18;1.00;;;1.00;;
7707;SDS011;3896;48.758;8.888;2023-04-24T14:12:44;1.33;;;1.30;;
7707;SDS011;3896;48.758;8.888;2023-04-24T14:15:10;1.13;;;1.10;;
7707;SDS011;3896;48.758;8.888;2023-04-24T14:17:36;1.20;;;1.20;;
7707;SDS011;3896;48.758;8.888;2023-04-24T14:20:02;1.30;;;1.20;;
7707;SDS011;3896;48.758;8.888;2023-04-24T14:22:29;1.10;;;1.10;;
7707;SDS011;3896;48.758;8.888;2023-04-24T14:24:55;1.97;;;1.47;;
7707;SDS011;3896;48.758;8.888;2023-04-24T14:27:20;2.70;;;1.63;;
7707;SDS011;3896;48.758;8.888;2023-04-24T14:29:46;1.50;;;1.40;;
7707;SDS011;3896;48.758;8.888;2023-04-24T14:32:11;1.53;;;1.43;;
7707;SDS011;3896;48.758;8.888;2023-04-24T14:34:39;1.17;;;1.17;;
7707;SDS011;3896;48.758;8.888;2023-04-24T14:37:05;1.60;;;1.50;;
7707;SDS011;3896;48.758;8.888;2023-04-24T14:39:31;1.83;;;1.73;;
7707;SDS011;3896;48.758;8.888;2023-04-24T14:41:56;1.63;;;1.53;;
7707;SDS011;3896;48.758;8.888;2023-04-24T14:44:22;1.53;;;1.43;;
7707;SDS011;3896;48.758;8.888;2023-04-24T14:46:48;3.20;;;1.33;;
7707;SDS011;3896;48.758;8.888;2023-04-24T14:49:14;2.07;;;1.87;;
7707;SDS011;3896;48.758;8.888;2023-04-24T14:51:39;2.37;;;1.30;;
7707;SDS011;3896;48.758;8.888;2023-04-24T14:54:05;1.97;;;1.87;;
7707;SDS011;3896;48.758;8.888;2023-04-24T14:56:31;1.60;;;1.50;;
7707;SDS011;3896;48.758;8.888;2023-04-24T14:58:57;3.07;;;1.60;;
7707;SDS011;3896;48.758;8.888;2023-04-24T15:01:23;1.47;;;1.20;;
7707;SDS011;3896;48.758;8.888;2023-04-24T15:03:49;1.63;;;1.50;;
7707;SDS011;3896;48.758;8.888;2023-04-24T15:06:14;2.20;;;1.30;;
7707;SDS011;3896;48.758;8.888;2023-04-24T15:08:40;1.50;;;1.00;;
7707;SDS011;3896;48.758;8.888;2023-04-24T15:11:06;1.00;;;1.00;;
7707;SDS011;3896;48.758;8.888;2023-04-24T15:13:31;1.10;;;1.10;;
7707;SDS011;3896;48.758;8.888;2023-04-24T15:15:57;2.37;;;1.50;;
7707;SDS011;3896;48.758;8.888;2023-04-24T15:18:22;3.43;;;1.37;;
7707;SDS011;3896;48.758;8.888;2023-04-24T15:20:48;1.47;;;1.37;;
7707;SDS011;3896;48.758;8.888;2023-04-24T15:23:14;1.40;;;1.30;;
7707;SDS011;3896;48.758;8.888;2023-04-24T15:25:39;1.97;;;1.40;;
7707;SDS011;3896;48.758;8.888;2023-04-24T15:28:05;3.33;;;2.07;;
7707;SDS011;3896;48.758;8.888;2023-04-24T15:30:31;1.67;;;1.43;;
7707;SDS011;3896;48.758;8.888;2023-04-24T15:32:56;1.90;;;1.80;;